Huvudsida
METAR-TAF:

METAR-TAF

Flygplatser :

Abadan International Airport

Abadan, Iran

latitud: 30-22N, longitud: 048-15E, höjd: 3 m

Aktuellt väderrapport

Denna rapport gjordes för 47 minuter sedan, klockan 20:00 UTC
Stilla vind
Temperatur 19°C
Fuktighet 56%
Tryck 1015 hPa
Sikt 10 km eller mer
Inga moln under 1 500 m eller inga cumulonimbus

METAR: OIAA 112000Z 00000KT CAVOK 19/10 Q1015

Tid: 00:17 (20:47 UTC)

Väderprognos

Denna rapport gjordes för 3 timmar och 17 minuter sedan, klockan 17:30 UTC
Prognos gäller från 11 kl. 18 UTC till 12 kl. 24 UTC
Vind 6 kt från nordväst
Sikt: 7000 m
Blir
från 12 kl. 00 UTC till 12 kl. 02 UTC
Sikt: 4000 m
torrdis
Blir
från 12 kl. 04 UTC till 12 kl. 06 UTC
Sikt: 7000 m

TAF: OIAA 111730Z 1118/1224 32006KT 7000 NSC BECMG 1200/1202 4000 HZ BECMG 1204/1206 7000 NSC

Aktuella väderrapporter och prognoser från 4000 flygplatser (METAR- och TAF-rapporter).

De tillgängliga stationerna syns som gula och röda prickar på kartan.

För musen över prickarna för att se namnen på stationerna.

Klicka sedan för att få väderrapporter och prognoser.

För att ändra kartan: Klicka på de gröna knapparna med ett svart kors på för att zooma in; den gröna knappen med ett streck på för att zooma ut; eller på de gröna pilarna för angränsande kartor.


METAR-TAF: